Terminal Aerodrome Forecast
Issued by NWS

Home | Current Version | Previous Version | Text Only | Print | Product List | Glossary On
Versions: 1 2 3 4 5 6 7 8 9 10 11 12 13 14 15 16 17 18 19 20
000
FTUS43 KEAX 172323
TAFSTJ
TAF
KSTJ 172323Z 1800/1824 07008KT P6SM SCT030 BKN250
     FM180800 13005KT P6SM VCSH BKN015
     FM181000 14006KT 5SM -SHRA VCTS OVC010CB
      TEMPO 1810/1813 3SM TSRA OVC010CB
     FM181600 16007KT 6SM -SHRA VCTS BKN015CB
     FM181800 17008KT P6SM BKN035=

USA.gov is the U.S. government's official web portal to all federal, state and local government web resources and services.